Umm Qasr, Iraq

7:01 AM +03 on August 20, 2017 (GMT +0300)
Abdally | | Change Station

Elev 46 ft 30.03 °N, 47.75 °E | Updated 14 seconds ago

Clear
Clear
93.7 °F
Feels Like 90 °F
N
18.0
Wind Variable Wind from NW
Gusts 19.0 mph

Today
High -- | Low -- °F
--% Chance of Precip.
Yesterday
High -- | Low -- °F
Precip. -- in
Pressure 29.56 in
Visibility -9999.0 miles
Clouds
Heat Index 90 °F
Dew Point 48 °F
Humidity 21%
Rainfall 0.00 in
Snow Depth Not available.
5:18 AM 6:24 PM
Waning Crescent, 3% visible
METAR ORMM 200400Z 30012KT CAVOK 32/06 Q1001 NOSIG
Pressure 29.56 in
Visibility -9999.0 miles
Clouds
Heat Index 90 °F
Dew Point 48 °F
Humidity 21%
Rainfall 0.00 in
Snow Depth Not available.
5:18 AM 6:24 PM
Waning Crescent, 3% visible
METAR ORMM 200400Z 30012KT CAVOK 32/06 Q1001 NOSIG

Get Severe Weather Alerts

Thanks for signing up!

Be on the lookout for a verification email in your inbox.

You'll start receiving the daily forecast at 6 AM.

×

10-Day Weather Forecast

No radar image for this location.
×

Almanac

Astronomy

Aug. 20, 2017 Rise Set
Actual Time
Civil Twilight
Nautical Twilight
Astronomical Twilight
Moon
Length of Visible Light
Length of Day
Tomorrow will be .
, % of the Moon is Illuminated

Today's Extremes

Country Highs Country Lows

Community

WunderPhotos

Category 6

Welcome to Category 6. This is the collective home for Weather Underground's featured writeups by Dr. Jeff Masters (right), Bob Henson (left), Chris Burt, and other regular contributors.

Nearby

Air Quality

  Air Quality AQ Index Pollutant
Not available.

Snow Depth

Station Depth Elevation

Earthquake Activity

City Distance Mag. Time & Date
Minimum magnitude displayed is 2.5.

Coastal Water Temperatures

Place Temperature

Stations

Nearby Weather Stations

Station Location Temp. Windchill Dew Point Humidity Wind Precip. Elev Updated Type